Whitewater, Wisconsin
Current Conditions -  °F | °C
As of 11:45 AM on Saturday 20 Dec 2014 (Local Time) from KJVL Reporting Station
Haze Haze  
Wind Chill: 30°   Ceiling: 2200
Heat Index: 30°   Visibility: 7mi
Dew Point: 25°   Wind: 0mph
Humidity: 80%   Direction: NA
Pressure: 30.24"   Gusts: NA
Location:  42.84°N, 88.74°W
Report Text: KJVL 201745Z 00000KT 7SM BR BKN022 OVC027 M01/M04 A3024
Loading
Personal Weather Stations






























Interactive Weather Map New forecast layout! Learn more

10-Day Weather Forecast

Advertisements
Track Severe Weather on mobile